首页
METAR-TAF:

METAR-TAF

机场 :

马格尼托哥尔斯克, 俄罗斯

纬度: 53-23-36N, 经度: 058-45-24E, 海拔: 436米

当前天气观测

该预报发布于31分钟前的22:30 UTC
风速25节,风向西转西北
温度 -3°C
湿度 68%
气压 1001 hPa
能見度: 9000
阴天层高于3000英尺
高吹雪

METAR: USCM 262230Z 30013MPS 9000 BLSN OVC030 M03/M08 Q1001 R36/820250 TEMPO 30020MPS 1000 BLSN RMK QFE713

时间: 04:01 (23:01 UTC)

预报

该预报发布于3小时和1分钟前的20:00 UTC
预报有效从26日的 21点(UTC)到 27日的 06点(UTC)
风速16节,风向西,有时为29节阵风
能見度: 5000
多云层高于1500英尺, 积雨云.
小阵雪, 高吹雪
短暂存在
从 26日的 21点(UTC)到 27日的 06点(UTC)
风速19节,风向西转西南,有时为35节阵风
能見度: 3100
层高于1100英尺
小阵雪, 高吹雪

TAF: USCM 262000Z 2621/2706 27008G15MPS 5000 -SHSN BLSN BKN015CB TEMPO 2621/2706 24010G18MPS 3100 -SHSN BLSN VV011

超过4000个机场的气象观测和天气预报(METAR&TAF报告)。

可查询的气象台以黄色和红色小点在地图上表示。

将鼠标移到小点上方,可查看气象台名称。

然后点击查看天气观测和预报。

如需切换地图:点击带黑十字的绿色按钮放大地图;点击带横线的绿色按钮缩小地图;或者点击绿色箭头查看邻近地区的地图。


METAR-TAF: